Time;durP1;ratioP1;P1;durP2;ratioP2;P2;SDS_P1;SDS_P2;PMS_P1;PMS_P2;Temp;Humidity;BMP_temperature;BMP_pressure;BME280_temperature;BME280_humidity;BME280_pressure;Samples;Min_cycle;Max_cycle;Signal;HPM_P1;HPM_P2
2022/01/19 00:00:17;;;;;;;7.00;3.90;;;;;;;2.00;87.03;100523.39;1807865;78;21050;-68
2022/01/19 00:02:45;;;;;;;6.87;4.00;;;;;;;2.04;87.04;100528.53;1811263;78;20999;-67
2022/01/19 00:05:12;;;;;;;8.88;4.80;;;;;;;2.05;87.04;100522.55;1806982;78;21142;-67
2022/01/19 00:07:39;;;;;;;8.15;4.22;;;;;;;2.06;87.08;100525.54;1814966;78;21516;-68
2022/01/19 00:10:11;;;;;;;8.18;4.40;;;;;;;2.07;87.12;100528.53;1814836;78;22222;-67
2022/01/19 00:12:38;;;;;;;6.97;3.83;;;;;;;2.08;87.14;100519.97;1814720;78;21326;-68
2022/01/19 00:15:06;;;;;;;;;;;;;;;2.10;87.26;100495.04;1816434;78;21531;-67
2022/01/19 00:17:33;;;;;;;12.28;3.85;;;;;;;2.12;87.29;100518.66;1813938;78;20088;-67
2022/01/19 00:19:59;;;;;;;8.80;3.67;;;;;;;2.12;87.52;100519.09;1809567;78;20901;-67
2022/01/19 00:22:27;;;;;;;10.15;4.50;;;;;;;2.13;87.37;100520.80;1810260;78;21173;-67
2022/01/19 00:24:53;;;;;;;;;;;;;;;2.14;87.47;100507.94;1816478;78;20913;-67
2022/01/19 00:27:20;;;;;;;7.15;3.33;;;;;;;2.16;87.36;100521.68;1813813;78;21208;-67
2022/01/19 00:29:47;;;;;;;6.58;3.17;;;;;;;2.17;87.36;100509.66;1817508;78;21554;-68
2022/01/19 00:32:13;;;;;;;6.23;3.40;;;;;;;2.18;87.38;100513.50;1819524;78;21494;-68
2022/01/19 00:34:40;;;;;;;6.80;3.50;;;;;;;2.20;87.38;100517.38;1818658;78;21721;-67
2022/01/19 00:37:07;;;;;;;7.95;3.58;;;;;;;2.20;87.62;100509.65;1816901;77;21729;-68
2022/01/19 00:39:33;;;;;;;7.97;3.77;;;;;;;2.18;87.48;100491.59;1818210;77;21267;-67
2022/01/19 00:42:00;;;;;;;7.67;3.55;;;;;;;2.20;87.96;100510.94;1825148;77;20907;-67
2022/01/19 00:44:27;;;;;;;11.05;3.80;;;;;;;2.19;87.71;100500.22;1825039;77;21009;-68
2022/01/19 00:46:54;;;;;;;6.95;3.02;;;;;;;2.19;87.75;100500.22;1743708;80;21524;-67
2022/01/19 00:49:20;;;;;;;6.43;3.07;;;;;;;2.20;87.84;100486.45;1767838;81;20884;-67
2022/01/19 00:51:47;;;;;;;8.58;3.17;;;;;;;2.21;87.73;100479.14;1771338;80;21108;-67
2022/01/19 00:54:13;;;;;;;7.75;2.58;;;;;;;2.21;87.75;100480.44;1796239;79;21037;-67
2022/01/19 00:56:40;;;;;;;5.22;3.27;;;;;;;2.22;87.82;100478.30;1757804;80;21455;-68
2022/01/19 00:59:07;;;;;;;7.15;3.45;;;;;;;2.23;87.86;100487.30;1756241;80;21624;-67
2022/01/19 01:01:33;;;;;;;7.12;3.05;;;;;;;2.25;87.90;100474.44;1755757;80;20937;-67
2022/01/19 01:04:00;;;;;;;12.30;3.40;;;;;;;2.25;87.89;100466.70;1755936;80;21105;-68
2022/01/19 01:06:27;;;;;;;7.97;3.30;;;;;;;2.28;88.07;100465.84;1752797;80;20982;-67
2022/01/19 01:08:54;;;;;;;8.00;3.62;;;;;;;2.29;88.04;100455.52;1760628;80;20940;-68
2022/01/19 01:11:29;;;;;;;7.97;3.02;;;;;;;2.30;88.05;100462.41;1757994;80;20938;-67
2022/01/19 01:16:39;;;;;;;7.70;3.25;;;;;;;2.29;88.12;100480.00;1755133;80;21016;-67
2022/01/19 01:19:06;;;;;;;8.98;3.35;;;;;;;2.29;88.13;100473.55;1757086;80;21044;-67
2022/01/19 01:21:34;;;;;;;8.58;3.33;;;;;;;2.29;88.12;100465.83;1756203;80;21013;-67
2022/01/19 01:24:01;;;;;;;11.65;3.55;;;;;;;2.31;88.16;100457.67;1756831;80;21486;-67
2022/01/19 01:26:28;;;;;;;9.43;3.67;;;;;;;2.33;88.14;100452.09;1750447;80;21625;-67
2022/01/19 01:28:54;;;;;;;7.65;3.25;;;;;;;2.33;88.12;100453.81;1755916;80;21210;-67
2022/01/19 01:31:21;;;;;;;8.03;3.50;;;;;;;2.33;88.14;100446.94;1757430;80;21076;-67
2022/01/19 01:33:47;;;;;;;12.15;3.17;;;;;;;2.34;88.40;100444.77;1763814;80;21046;-68
2022/01/19 01:36:16;;;;;;;9.25;3.20;;;;;;;2.35;88.35;100441.77;1764518;79;20903;-67
2022/01/19 01:38:42;;;;;;;7.15;2.98;;;;;;;2.34;88.39;100440.05;1774793;79;21024;-67
2022/01/19 01:41:13;;;;;;;11.03;3.70;;;;;;;2.33;88.60;100440.49;1789915;79;21579;-67
2022/01/19 01:43:42;;;;;;;5.85;2.87;;;;;;;2.33;88.49;100428.05;1757187;80;21044;-67
2022/01/19 01:46:19;;;;;;;9.33;2.83;;;;;;;2.34;88.50;100428.02;1757842;80;22392;-67
2022/01/19 01:48:43;;;;;;;7.62;3.50;;;;;;;2.35;88.65;100419.45;1772802;79;20970;-68
2022/01/19 01:53:56;;;;;;;9.05;3.77;;;;;;;2.36;88.65;100412.13;1744444;81;22028;-67
2022/01/19 01:56:23;;;;;;;6.45;3.47;;;;;;;2.36;88.57;100410.84;1797860;78;21457;-67
2022/01/19 01:58:50;;;;;;;14.18;4.37;;;;;;;2.36;88.57;100403.11;1782270;79;20936;-67
2022/01/19 02:01:21;;;;;;;10.45;3.20;;;;;;;2.35;88.62;100409.14;1797527;79;21252;-67
2022/01/19 02:03:46;;;;;;;9.75;3.27;;;;;;;2.34;88.71;100411.27;1784331;79;20962;-67
2022/01/19 02:23:21;;;;;;;8.20;3.77;;;;;;;2.29;88.98;100367.91;1795106;79;20985;-68
2022/01/19 02:25:54;;;;;;;12.63;3.92;;;;;;;2.28;89.03;100363.63;1775115;79;21002;-67
2022/01/19 02:40:09;;;;;;;6.80;3.87;;;;;;;2.26;89.38;100371.78;1740845;80;21005;-68
2022/01/19 02:42:11;;;;;;;10.68;4.58;;;;;;;2.23;89.64;100357.62;1734016;81;21000;-68
2022/01/19 02:49:44;;;;;;;8.00;4.40;;;;;;;2.19;89.29;100328.44;1740049;81;21065;-67
2022/01/19 02:52:11;;;;;;;12.68;5.90;;;;;;;2.18;89.43;100327.99;1736927;81;20923;-67
2022/01/19 02:54:38;;;;;;;6.35;3.95;;;;;;;2.17;89.42;100324.16;1730546;81;21058;-67
2022/01/19 02:57:08;;;;;;;8.33;5.00;;;;;;;2.16;89.37;100328.45;1734373;81;21673;-67
2022/01/19 03:00:10;;;;;;;6.53;4.28;;;;;;;2.14;89.40;100329.31;1744016;81;21117;-67
2022/01/19 03:10:21;;;;;;;9.80;4.85;;;;;;;2.08;89.75;100338.36;1733232;81;20977;-67
2022/01/19 03:12:48;;;;;;;6.63;4.60;;;;;;;2.03;89.50;100315.61;1740782;80;21084;-68
2022/01/19 03:15:15;;;;;;;7.53;5.17;;;;;;;1.99;89.38;100318.20;1736315;80;21611;-67
2022/01/19 03:17:42;;;;;;;8.10;4.60;;;;;;;2.00;89.52;100332.78;1738726;81;21120;-67
2022/01/19 03:20:12;;;;;;;7.33;4.67;;;;;;;1.99;89.62;100323.35;1737369;81;20934;-67
2022/01/19 03:22:58;;;;;;;10.18;5.08;;;;;;;1.99;89.69;100315.63;1739623;81;20962;-66
2022/01/19 03:25:17;;;;;;;9.58;4.87;;;;;;;1.99;89.62;100320.78;1744615;81;22025;-67
2022/01/19 03:27:47;;;;;;;11.97;5.37;;;;;;;2.00;89.79;100319.91;1744597;81;21050;-67
2022/01/19 03:30:20;;;;;;;11.00;5.00;;;;;;;1.98;89.83;100313.89;1734467;81;20974;-66
2022/01/19 03:32:47;;;;;;;9.93;4.70;;;;;;;1.98;89.91;100313.89;1736141;81;21161;-66
2022/01/19 03:35:14;;;;;;;8.25;4.10;;;;;;;1.98;90.13;100319.04;1733638;81;21567;-67
2022/01/19 03:37:41;;;;;;;9.75;5.28;;;;;;;1.96;90.00;100318.21;1754247;79;21141;-67
2022/01/19 03:40:09;;;;;;;8.88;5.50;;;;;;;1.96;89.99;100319.91;1748472;81;21526;-67
2022/01/19 03:42:36;;;;;;;13.78;5.65;;;;;;;1.95;90.07;100318.20;1743384;80;21631;-67
2022/01/19 03:45:09;;;;;;;9.38;4.28;;;;;;;1.93;90.02;100311.78;1752690;80;20902;-67
2022/01/19 03:47:47;;;;;;;12.23;6.30;;;;;;;1.93;90.18;100309.20;1769415;80;21602;-67
2022/01/19 03:50:09;;;;;;;9.03;5.53;;;;;;;1.93;90.39;100315.65;1764593;80;22841;-67
2022/01/19 03:52:36;;;;;;;8.88;4.97;;;;;;;1.94;90.08;100307.05;1766120;80;28777;-67
2022/01/19 03:55:04;;;;;;;12.40;6.75;;;;;;;1.94;90.10;100305.77;1775773;80;21571;-67
2022/01/19 03:57:31;;;;;;;14.53;6.70;;;;;;;1.94;89.99;100307.05;1767219;80;21459;-67
2022/01/19 03:59:58;;;;;;;12.47;6.55;;;;;;;1.95;89.97;100301.02;1778888;80;20970;-67
2022/01/19 04:02:26;;;;;;;11.97;7.08;;;;;;;1.95;89.95;100298.45;1765981;80;21870;-67
2022/01/19 04:04:59;;;;;;;11.80;7.12;;;;;;;1.95;90.04;100301.02;1764438;80;20981;-67
2022/01/19 04:07:23;;;;;;;15.65;6.85;;;;;;;1.94;90.00;100308.34;1735568;81;20994;-67
2022/01/19 04:09:49;;;;;;;11.57;6.55;;;;;;;1.94;90.12;100303.19;1759201;80;20968;-67
2022/01/19 04:12:24;;;;;;;11.75;6.50;;;;;;;1.95;90.00;100306.17;1767389;80;21875;-67
2022/01/19 04:14:45;;;;;;;12.73;6.97;;;;;;;1.96;90.07;100313.06;1765167;80;21100;-67
2022/01/19 04:17:15;;;;;;;12.45;7.35;;;;;;;1.96;90.01;100307.91;1741817;81;21002;-67
2022/01/19 04:19:45;;;;;;;13.60;7.30;;;;;;;1.96;90.00;100295.03;1761459;80;21623;-67
2022/01/19 04:22:18;;;;;;;13.45;7.35;;;;;;;1.97;90.01;100296.73;1765079;80;20989;-67
2022/01/19 04:24:47;;;;;;;15.80;7.62;;;;;;;1.98;89.96;100275.69;1765710;80;21111;-67
2022/01/19 04:29:59;;;;;;;12.68;7.37;;;;;;;1.99;90.03;100273.12;1768507;80;20927;-68
2022/01/19 04:32:30;;;;;;;13.98;8.15;;;;;;;1.99;89.98;100266.69;1766532;80;21069;-67
2022/01/19 04:34:51;;;;;;;16.10;7.42;;;;;;;1.97;89.95;100255.53;1744621;80;21031;-68
2022/01/19 04:45:53;;;;;;;12.60;8.43;;;;;;;1.92;90.13;100240.52;1817147;78;20935;-67
2022/01/19 04:48:20;;;;;;;14.23;8.98;;;;;;;1.92;90.11;100246.11;1803575;78;21078;-67
2022/01/19 05:02:10;;;;;;;13.30;8.65;;;;;;;1.81;90.10;100219.09;1811555;77;21022;-67
2022/01/19 05:14:50;;;;;;;12.53;8.30;;;;;;;1.72;90.27;100213.98;1813977;78;21014;-67
2022/01/19 05:17:16;;;;;;;11.30;7.67;;;;;;;1.70;90.12;100207.98;1812389;78;20938;-67
2022/01/19 05:19:43;;;;;;;14.93;8.55;;;;;;;1.65;90.13;100200.70;1817364;78;21528;-67
2022/01/19 05:22:10;;;;;;;14.98;9.05;;;;;;;1.60;90.15;100202.42;1813656;78;20960;-67
2022/01/19 05:24:36;;;;;;;15.60;8.78;;;;;;;1.58;90.11;100196.45;1744924;81;21037;-67
2022/01/19 05:27:06;;;;;;;16.17;8.43;;;;;;;1.55;90.16;100198.16;1810678;78;20951;-68
2022/01/19 05:29:32;;;;;;;12.30;8.80;;;;;;;1.53;90.21;100210.17;1813176;78;21659;-67
2022/01/19 05:31:59;;;;;;;13.20;9.48;;;;;;;1.50;90.21;100205.03;1815728;78;21292;-67
2022/01/19 05:34:26;;;;;;;13.35;9.45;;;;;;;1.51;90.28;100204.20;1750682;81;20983;-68
2022/01/19 05:36:52;;;;;;;14.33;9.95;;;;;;;1.47;90.26;100197.33;1758646;80;21491;-68
2022/01/19 05:39:19;;;;;;;15.00;8.60;;;;;;;1.43;90.34;100205.93;1755501;80;21041;-68
2022/01/19 05:41:46;;;;;;;13.35;8.65;;;;;;;1.40;90.34;100203.37;1764983;80;21658;-68
2022/01/19 05:44:14;;;;;;;14.45;9.15;;;;;;;1.37;90.30;100205.91;1758696;80;21072;-68
2022/01/19 05:46:40;;;;;;;12.90;8.08;;;;;;;1.35;90.27;100203.80;1760657;79;20950;-68
2022/01/19 05:49:07;;;;;;;19.17;9.35;;;;;;;1.33;90.32;100201.66;1766226;80;21463;-70
2022/01/19 05:51:35;;;;;;;12.55;8.70;;;;;;;1.31;90.34;100208.51;1760740;80;21848;-70
2022/01/19 05:54:01;;;;;;;16.50;8.68;;;;;;;1.29;90.36;100192.24;1754921;80;21559;-70
2022/01/19 05:56:28;;;;;;;16.67;9.05;;;;;;;1.29;90.42;100199.96;1764519;80;21149;-69
2022/01/19 05:58:55;;;;;;;10.53;8.68;;;;;;;1.27;90.42;100199.09;1756130;80;21057;-69
2022/01/19 06:01:22;;;;;;;13.32;9.75;;;;;;;1.26;90.41;100189.64;1720667;81;21088;-70
2022/01/19 06:03:50;;;;;;;13.48;8.43;;;;;;;1.24;90.44;100197.82;1760772;80;21052;-70
2022/01/19 06:06:17;;;;;;;12.20;8.90;;;;;;;1.23;90.42;100184.52;1737201;80;21007;-69
2022/01/19 06:08:59;;;;;;;14.65;9.03;;;;;;;1.21;90.42;100176.81;1740119;80;22019;-70
2022/01/19 06:11:16;;;;;;;16.23;9.08;;;;;;;1.19;90.37;100177.67;1756361;80;21055;-70
2022/01/19 06:13:43;;;;;;;15.58;9.33;;;;;;;1.17;90.37;100174.23;1760998;80;20942;-69
2022/01/19 06:16:10;;;;;;;11.73;8.88;;;;;;;1.17;90.34;100174.23;1740037;80;21044;-70
2022/01/19 06:18:40;;;;;;;16.50;10.10;;;;;;;1.13;90.34;100178.98;1761924;80;20979;-70
2022/01/19 06:21:05;;;;;;;13.72;9.85;;;;;;;1.05;90.64;100168.25;1753403;80;21117;-70
2022/01/19 06:23:31;;;;;;;11.85;9.23;;;;;;;1.02;90.48;100163.13;1745204;80;20994;-70
2022/01/19 06:25:59;;;;;;;12.80;9.50;;;;;;;1.01;90.45;100155.39;1744391;81;21001;-69
2022/01/19 06:28:25;;;;;;;;;;;;;;;0.98;90.43;100153.71;1763120;80;20993;-69
2022/01/19 06:30:52;;;;;;;12.10;9.35;;;;;;;0.97;90.51;100146.84;1747851;80;21063;-69
2022/01/19 06:33:18;;;;;;;11.08;8.70;;;;;;;0.96;90.50;100142.56;1746397;80;21057;-69
2022/01/19 06:35:45;;;;;;;15.08;8.95;;;;;;;0.94;90.45;100128.84;1744984;80;21035;-69
2022/01/19 06:38:12;;;;;;;14.18;9.48;;;;;;;0.93;90.46;100131.00;1746759;80;20950;-69
2022/01/19 06:40:39;;;;;;;11.18;8.58;;;;;;;0.91;90.40;100125.00;1759778;80;21268;-68
2022/01/19 06:43:08;;;;;;;12.18;8.95;;;;;;;0.89;90.41;100123.70;1758443;79;21678;-69
2022/01/19 06:45:35;;;;;;;14.50;8.83;;;;;;;0.86;90.44;100125.42;1759375;80;21517;-69
2022/01/19 06:48:16;;;;;;;11.35;8.35;;;;;;;0.84;90.44;100114.28;1719341;81;21543;-70
2022/01/19 06:50:42;;;;;;;15.95;9.13;;;;;;;0.82;90.42;100116.88;1755961;80;20969;-69
2022/01/19 06:53:09;;;;;;;12.88;8.88;;;;;;;0.81;90.42;100113.00;1729478;81;21064;-69
2022/01/19 06:55:35;;;;;;;14.80;8.77;;;;;;;0.77;90.41;100107.45;1755172;81;21020;-71
2022/01/19 06:58:02;;;;;;;15.00;9.35;;;;;;;0.75;90.45;100110.45;1753577;81;21215;-69
2022/01/19 07:00:29;;;;;;;16.42;9.88;;;;;;;0.72;90.40;100106.59;1752886;80;21044;-70
2022/01/19 07:02:55;;;;;;;15.38;9.25;;;;;;;0.69;90.48;100104.03;1756147;81;20974;-70
2022/01/19 07:05:22;;;;;;;14.00;9.85;;;;;;;0.68;90.48;100103.62;1725154;81;20954;-70
2022/01/19 07:07:49;;;;;;;12.43;9.77;;;;;;;0.68;90.50;100101.05;1755747;81;21009;-70
2022/01/19 07:10:15;;;;;;;12.13;8.63;;;;;;;0.66;90.53;100095.45;1760025;80;21832;-69
2022/01/19 07:12:42;;;;;;;16.82;10.18;;;;;;;0.65;90.56;100098.90;1734960;81;21563;-70
2022/01/19 07:15:09;;;;;;;11.88;9.70;;;;;;;0.63;90.54;100090.33;1754135;81;21066;-70
2022/01/19 07:17:36;;;;;;;15.35;10.38;;;;;;;0.62;90.55;100083.48;1765127;80;20956;-70
2022/01/19 07:20:04;;;;;;;20.48;11.55;;;;;;;0.63;90.59;100086.47;1760615;81;21120;-70
2022/01/19 07:22:30;;;;;;;15.40;10.03;;;;;;;0.65;90.60;100089.91;1754278;81;21140;-70
2022/01/19 07:25:02;;;;;;;19.25;10.08;;;;;;;0.65;90.68;100080.91;1761309;80;21543;-70
2022/01/19 07:27:27;;;;;;;15.20;10.18;;;;;;;0.66;90.61;100088.19;1748554;81;21552;-71
2022/01/19 07:29:53;;;;;;;;;;;;;;;0.66;90.59;100085.18;1736897;82;21129;-69
2022/01/19 07:32:20;;;;;;;12.13;10.10;;;;;;;0.69;90.65;100074.48;1751447;81;20181;-70
2022/01/19 07:34:46;;;;;;;16.25;10.98;;;;;;;0.68;90.64;100071.49;1755999;80;21100;-69
2022/01/19 07:37:13;;;;;;;12.55;10.70;;;;;;;0.72;90.73;100070.61;1751775;80;20997;-69
2022/01/19 07:39:40;;;;;;;15.55;10.35;;;;;;;0.76;90.78;100064.19;1775565;78;21035;-70
2022/01/19 07:42:07;;;;;;;16.37;10.58;;;;;;;0.82;90.74;100069.75;1779586;80;21116;-69
2022/01/19 07:44:34;;;;;;;18.70;11.18;;;;;;;0.84;90.68;100065.44;1781166;80;20981;-70
2022/01/19 07:47:00;;;;;;;15.35;9.95;;;;;;;0.90;90.80;100061.59;1787037;79;22049;-70
2022/01/19 07:49:27;;;;;;;14.95;10.50;;;;;;;0.93;90.71;100061.58;1775623;79;21007;-70
2022/01/19 07:51:54;;;;;;;17.57;11.40;;;;;;;0.98;90.73;100061.14;1760280;80;21762;-69
2022/01/19 07:54:20;;;;;;;18.23;10.43;;;;;;;1.01;90.63;100048.28;1783129;79;21034;-70
2022/01/19 07:56:47;;;;;;;18.57;10.78;;;;;;;1.00;90.57;100046.55;1777370;79;21613;-70
2022/01/19 07:59:15;;;;;;;16.85;11.38;;;;;;;0.98;90.56;100038.00;1780971;79;21609;-70
2022/01/19 08:01:42;;;;;;;16.15;11.15;;;;;;;1.00;90.64;100051.69;1777729;79;21025;-70
2022/01/19 08:04:08;;;;;;;13.78;10.32;;;;;;;1.04;90.60;100057.70;1779031;79;21517;-69
2022/01/19 08:06:36;;;;;;;18.95;11.45;;;;;;;1.05;90.62;100054.25;1781250;79;21053;-70
2022/01/19 08:09:04;;;;;;;15.23;10.75;;;;;;;1.06;90.65;100041.38;1793392;78;26656;-70
2022/01/19 08:11:31;;;;;;;18.37;11.63;;;;;;;1.13;90.70;100045.23;1780249;79;21153;-69
2022/01/19 08:13:58;;;;;;;16.77;10.13;;;;;;;1.16;90.72;100046.07;1768303;79;21309;-70
2022/01/19 08:16:24;;;;;;;13.83;9.00;;;;;;;1.18;90.65;100049.50;1761775;80;20966;-71
2022/01/19 08:18:51;;;;;;;21.42;11.63;;;;;;;1.21;90.71;100053.34;1770528;79;21085;-70
2022/01/19 08:21:17;;;;;;;17.60;11.73;;;;;;;1.20;90.61;100048.19;1759997;80;21018;-70
2022/01/19 08:23:44;;;;;;;14.65;11.05;;;;;;;1.23;90.74;100044.31;1770673;79;21892;-70
2022/01/19 08:26:15;;;;;;;16.95;11.90;;;;;;;1.24;90.62;100047.33;1774509;79;21006;-70
2022/01/19 08:28:42;;;;;;;16.42;11.30;;;;;;;1.25;90.67;100041.31;1778969;79;20982;-70
2022/01/19 08:31:08;;;;;;;17.13;11.30;;;;;;;1.28;90.70;100037.44;1783333;79;20970;-70
2022/01/19 08:33:35;;;;;;;17.25;12.78;;;;;;;1.32;90.75;100027.58;1774830;79;21066;-70
2022/01/19 08:36:02;;;;;;;15.55;10.82;;;;;;;1.36;90.74;100026.69;1772562;79;21095;-70
2022/01/19 08:38:29;;;;;;;14.77;11.00;;;;;;;1.41;90.75;100013.37;1767821;79;21057;-70
2022/01/19 08:40:55;;;;;;;12.68;10.38;;;;;;;1.43;90.65;100021.06;1761309;80;21073;-70
2022/01/19 08:43:24;;;;;;;14.23;11.33;;;;;;;1.47;90.72;100013.33;1757226;80;21097;-70
2022/01/19 08:45:52;;;;;;;15.03;10.65;;;;;;;1.49;90.69;100011.61;1763558;80;21054;-70
2022/01/19 08:48:19;;;;;;;18.07;11.48;;;;;;;1.51;90.67;100007.33;1758790;80;21069;-70
2022/01/19 08:50:46;;;;;;;15.75;10.72;;;;;;;1.52;90.63;100002.59;1755064;80;20962;-70
2022/01/19 08:53:13;;;;;;;16.65;10.60;;;;;;;1.56;90.73;100006.84;1755019;80;20951;-70
2022/01/19 08:55:40;;;;;;;13.35;11.22;;;;;;;1.58;90.71;100016.28;1757674;80;21104;-69
2022/01/19 08:58:07;;;;;;;15.45;11.97;;;;;;;1.56;90.53;100017.13;1752669;80;21060;-70
2022/01/19 09:00:35;;;;;;;14.98;11.12;;;;;;;1.52;90.61;100009.02;1755028;80;21102;-69
2022/01/19 09:03:01;;;;;;;16.62;11.12;;;;;;;1.59;90.79;100007.69;1755482;80;21524;-68
2022/01/19 09:05:28;;;;;;;18.32;10.88;;;;;;;1.62;90.78;99999.95;1757911;80;20986;-69
2022/01/19 09:07:55;;;;;;;17.73;11.20;;;;;;;1.64;90.71;99998.23;1754804;80;21105;-70
2022/01/19 09:10:22;;;;;;;15.60;10.88;;;;;;;1.64;90.66;99990.50;1757461;80;20926;-69
2022/01/19 09:12:49;;;;;;;13.15;10.18;;;;;;;1.67;90.76;99993.05;1758075;80;21095;-72
2022/01/19 09:15:18;;;;;;;15.75;10.38;;;;;;;1.69;90.70;99987.03;1754675;80;21565;-69
2022/01/19 09:17:45;;;;;;;14.98;10.82;;;;;;;1.68;90.57;99985.34;1753003;80;20933;-70
2022/01/19 09:20:14;;;;;;;13.35;10.93;;;;;;;1.70;90.70;99982.73;1754339;80;21035;-70
2022/01/19 09:22:42;;;;;;;12.82;10.68;;;;;;;1.74;90.64;99981.86;1751901;80;21018;-69
2022/01/19 09:25:12;;;;;;;12.78;10.15;;;;;;;1.71;90.59;99988.30;1760013;80;21081;-69
2022/01/19 09:27:39;;;;;;;13.35;11.35;;;;;;;1.74;90.67;99995.59;1757946;80;20956;-69
2022/01/19 09:30:14;;;;;;;15.05;11.33;;;;;;;1.76;90.56;99989.12;1756498;80;21037;-70
2022/01/19 09:32:45;;;;;;;13.20;11.45;;;;;;;1.81;90.65;99983.52;1756657;80;21041;-69
2022/01/19 09:35:22;;;;;;;11.18;9.75;;;;;;;1.85;90.68;99977.49;1756994;79;21597;-69
2022/01/19 09:37:41;;;;;;;12.80;10.63;;;;;;;1.91;90.70;99976.59;1753397;80;21130;-70
2022/01/19 09:40:09;;;;;;;14.20;10.40;;;;;;;1.91;90.58;99986.89;1764209;80;21086;-70
2022/01/19 09:42:36;;;;;;;15.95;11.33;;;;;;;1.96;90.69;99986.39;1760832;80;21082;-71
2022/01/19 09:45:04;;;;;;;19.60;13.03;;;;;;;2.00;90.68;99981.66;1758702;80;21058;-70
2022/01/19 09:47:30;;;;;;;15.60;11.90;;;;;;;2.00;90.50;99972.20;1810722;78;21582;-69
2022/01/19 09:49:57;;;;;;;17.52;12.40;;;;;;;2.04;90.62;99978.61;1807146;78;21071;-69
2022/01/19 09:52:24;;;;;;;14.83;11.33;;;;;;;2.10;90.65;99961.81;1810037;78;20932;-70
2022/01/19 09:54:51;;;;;;;14.90;12.33;;;;;;;2.11;90.47;99955.81;1820172;77;21020;-70
2022/01/19 09:57:19;;;;;;;15.23;12.10;;;;;;;2.13;90.44;99951.48;1809999;78;21042;-69
2022/01/19 09:59:45;;;;;;;;;;;;;;;2.15;90.49;99944.59;1820136;77;21020;-70
2022/01/19 10:02:11;;;;;;;17.12;11.83;;;;;;;2.18;90.50;99943.27;1813683;78;21275;-69
2022/01/19 10:04:42;;;;;;;16.57;11.88;;;;;;;2.25;90.69;99937.20;1813856;78;21046;-70
2022/01/19 10:07:13;;;;;;;17.95;13.43;;;;;;;2.29;90.57;99931.58;1819190;77;21501;-70
2022/01/19 10:10:01;;;;;;;16.20;11.75;;;;;;;2.28;90.39;99934.59;1817000;77;21174;-70
2022/01/19 10:18:25;;;;;;;16.48;12.37;;;;;;;2.23;90.20;99935.08;1817871;77;21012;-70
2022/01/19 10:21:16;;;;;;;15.25;12.05;;;;;;;2.21;90.26;99925.21;1813648;77;20933;-70
2022/01/19 10:23:48;;;;;;;15.90;12.25;;;;;;;2.20;90.31;99927.38;1808697;78;21520;-70
2022/01/19 10:26:25;;;;;;;15.48;11.75;;;;;;;2.18;90.34;99926.53;1811436;78;21004;-70
2022/01/19 10:29:08;;;;;;;16.48;11.95;;;;;;;2.18;90.41;99914.50;1810640;78;21133;-69
2022/01/19 10:31:38;;;;;;;14.83;11.25;;;;;;;2.20;90.46;99922.23;1812674;77;20918;-69
2022/01/19 10:34:21;;;;;;;14.23;10.65;;;;;;;2.17;90.46;99917.11;1808699;78;21665;-70
2022/01/19 10:36:56;;;;;;;15.25;11.03;;;;;;;2.23;90.59;99915.75;1816101;77;20962;-70
2022/01/19 10:39:26;;;;;;;14.85;10.45;;;;;;;2.29;90.62;99908.39;1816009;77;21023;-69
2022/01/19 10:42:10;;;;;;;13.38;10.15;;;;;;;2.31;90.46;99904.93;1815973;77;21929;-70
2022/01/19 10:44:43;;;;;;;16.20;11.40;;;;;;;2.30;90.34;99896.80;1821232;77;20973;-70
2022/01/19 10:47:11;;;;;;;26.37;14.18;;;;;;;2.30;90.30;99892.93;1815690;77;21085;-69
2022/01/19 10:49:57;;;;;;;18.25;11.68;;;;;;;2.33;90.42;99889.03;1819280;77;21564;-72
2022/01/19 10:52:44;;;;;;;16.97;12.00;;;;;;;2.40;90.27;99880.78;1819497;77;20991;-85
2022/01/19 10:55:21;;;;;;;12.60;9.60;;;;;;;2.55;90.62;99874.59;1820862;77;23099;-81
2022/01/19 10:57:50;;;;;;;13.20;8.55;;;;;;;2.75;90.65;99861.47;1821429;77;21019;-81
2022/01/19 11:00:37;;;;;;;12.07;9.93;;;;;;;2.87;90.54;99856.98;1816920;77;20915;-77
2022/01/19 11:03:25;;;;;;;15.32;10.78;;;;;;;2.98;90.37;99840.52;1824499;77;21003;-83
2022/01/19 11:05:58;;;;;;;14.58;11.00;;;;;;;3.11;90.15;99836.89;1818497;77;21037;-83
2022/01/19 11:08:27;;;;;;;13.15;9.78;;;;;;;3.07;89.84;99823.60;1820484;77;21727;-84
2022/01/19 11:10:58;;;;;;;12.43;10.13;;;;;;;3.05;89.85;99824.05;1816668;77;20934;-84
2022/01/19 11:13:33;;;;;;;15.65;11.15;;;;;;;2.95;89.43;99804.45;1813606;77;20956;-82
2022/01/19 11:16:02;;;;;;;17.70;11.40;;;;;;;2.85;89.41;99804.56;1822622;77;21033;-75
2022/01/19 11:18:32;;;;;;;14.53;10.55;;;;;;;2.82;89.50;99799.45;1819488;77;20928;-77
2022/01/19 11:21:03;;;;;;;17.50;10.38;;;;;;;2.84;89.82;99787.40;1822624;77;21755;-75
2022/01/19 11:23:56;;;;;;;14.90;9.68;;;;;;;2.89;90.03;99780.45;1823382;77;21043;-79
2022/01/19 11:26:30;;;;;;;10.68;8.43;;;;;;;2.94;89.94;99771.78;1759463;81;20931;-80
2022/01/19 11:29:20;;;;;;;14.28;10.18;;;;;;;2.99;89.88;99750.64;1759315;80;21050;-78
2022/01/19 11:31:50;;;;;;;16.95;11.43;;;;;;;3.03;89.81;99747.16;1759050;80;20934;-79
2022/01/19 11:34:37;;;;;;;16.02;11.50;;;;;;;3.14;89.89;99746.54;1760411;80;22102;-85
2022/01/19 11:37:04;;;;;;;17.98;11.40;;;;;;;3.18;89.74;99724.95;1755711;80;21510;-83
2022/01/19 11:39:31;;;;;;;16.73;12.23;;;;;;;3.22;89.53;99724.04;1759732;80;21132;-80
2022/01/19 11:42:04;;;;;;;21.37;11.78;;;;;;;3.23;89.48;99712.83;1765222;80;21065;-78
2022/01/19 11:44:38;;;;;;;14.40;10.28;;;;;;;3.27;89.53;99700.27;1758295;80;21033;-79
2022/01/19 11:47:16;;;;;;;17.48;11.38;;;;;;;3.33;89.51;99691.16;1759734;81;21124;-79
2022/01/19 11:50:03;;;;;;;17.35;9.75;;;;;;;3.38;89.45;99679.88;1760202;80;21053;-79
2022/01/19 11:52:40;;;;;;;14.20;10.20;;;;;;;3.41;89.25;99682.41;1754793;80;20975;-79
2022/01/19 11:55:26;;;;;;;14.00;10.30;;;;;;;3.49;89.47;99666.33;1760232;80;21059;-78
2022/01/19 11:58:23;;;;;;;14.00;9.63;;;;;;;3.54;89.35;99668.39;1762108;80;20970;-79
2022/01/19 12:00:58;;;;;;;13.05;9.25;;;;;;;3.62;89.25;99666.51;1752596;80;21186;-77
2022/01/19 12:03:32;;;;;;;16.02;10.95;;;;;;;3.63;89.01;99651.41;1754425;79;21018;-81
2022/01/19 12:06:00;;;;;;;19.90;13.15;;;;;;;3.63;89.00;99646.25;1758587;80;21036;-78
2022/01/19 12:08:35;;;;;;;13.85;10.35;;;;;;;3.59;88.70;99645.92;1761603;80;21518;-83
2022/01/19 12:11:18;;;;;;;15.98;11.35;;;;;;;3.59;88.86;99635.59;1758783;80;20994;-78
2022/01/19 12:14:21;;;;;;;24.75;11.88;;;;;;;3.65;89.06;99619.97;1759178;80;21088;-86
2022/01/19 12:17:01;;;;;;;16.30;11.12;;;;;;;3.71;89.12;99613.37;1759682;80;20999;-81
2022/01/19 12:19:29;;;;;;;18.67;12.88;;;;;;;3.80;89.09;99601.55;1756938;80;21096;-79
2022/01/19 12:22:08;;;;;;;21.57;13.38;;;;;;;3.86;88.91;99596.70;1759237;80;21033;-79
2022/01/19 12:24:45;;;;;;;18.15;12.85;;;;;;;3.93;88.90;99584.52;1757795;80;21635;-80
2022/01/19 12:27:20;;;;;;;17.82;12.88;;;;;;;3.99;88.80;99577.91;1768581;79;21139;-77
2022/01/19 12:30:13;;;;;;;19.80;12.70;;;;;;;4.05;88.65;99582.94;1779312;79;20939;-76
2022/01/19 12:32:52;;;;;;;16.35;11.55;;;;;;;4.06;88.49;99576.87;1818037;77;21363;-79
2022/01/19 12:35:34;;;;;;;14.98;10.48;;;;;;;4.08;88.26;99565.22;1813365;77;20926;-78
2022/01/19 12:38:07;;;;;;;16.35;10.70;;;;;;;4.05;88.20;99559.68;1818298;77;21005;-79
2022/01/19 12:40:43;;;;;;;20.80;11.30;;;;;;;4.03;88.01;99560.15;1815544;78;22359;-78
2022/01/19 12:43:15;;;;;;;28.67;13.48;;;;;;;4.03;88.14;99553.69;1819441;78;20966;-78
2022/01/19 12:45:50;;;;;;;16.97;11.30;;;;;;;4.03;88.11;99556.27;1813937;78;21184;-78
2022/01/19 12:48:48;;;;;;;26.15;14.07;;;;;;;4.08;88.03;99553.14;1816099;78;21042;-78
2022/01/19 12:51:39;;;;;;;67.08;14.95;;;;;;;4.08;87.96;99541.52;1819211;77;21577;-78
2022/01/19 12:54:08;;;;;;;35.80;12.70;;;;;;;4.07;87.82;99541.13;1812447;78;21074;-77
2022/01/19 12:56:35;;;;;;;17.70;10.38;;;;;;;4.03;87.68;99552.40;1807407;78;21013;-78
2022/01/19 12:59:07;;;;;;;15.60;10.20;;;;;;;3.99;87.53;99552.92;1817234;77;21025;-77
2022/01/19 13:01:33;;;;;;;15.10;10.28;;;;;;;3.97;87.59;99553.84;1814976;78;21541;-78
2022/01/19 13:04:00;;;;;;;110.65;14.70;;;;;;;3.94;87.48;99553.91;1817059;77;21058;-77